Time;durP1;ratioP1;P1;durP2;ratioP2;P2;SDS_P1;SDS_P2;PMS_P1;PMS_P2;Temp;Humidity;BMP_temperature;BMP_pressure;BME280_temperature;BME280_humidity;BME280_pressure;Samples;Min_cycle;Max_cycle;Signal;HPM_P1;HPM_P2
2021/03/21 00:01:43;;;;;;;12.20;8.80;;;;;;;;;;5010534;28;20270;-50
2021/03/21 00:04:11;;;;;;;14.15;9.50;;;;;;;;;;5009961;28;20408;-53
2021/03/21 00:06:37;;;;;;;11.23;10.05;;;;;;;;;;5009374;28;20561;-54
2021/03/21 00:09:04;;;;;;;15.02;9.75;;;;;;;;;;5010476;28;20200;-53
2021/03/21 00:11:30;;;;;;;13.93;10.45;;;;;;;;;;5010396;28;20192;-51
2021/03/21 00:13:56;;;;;;;12.60;10.40;;;;;;;;;;5008503;28;20211;-53
2021/03/21 00:16:22;;;;;;;12.77;10.20;;;;;;;;;;5010281;28;20506;-50
2021/03/21 00:18:48;;;;;;;15.57;11.02;;;;;;;;;;5013489;28;20497;-50
2021/03/21 00:21:14;;;;;;;11.53;10.00;;;;;;;;;;5013836;28;20271;-50
2021/03/21 00:23:40;;;;;;;16.35;11.57;;;;;;;;;;5014025;28;20399;-53
2021/03/21 00:26:07;;;;;;;18.95;11.73;;;;;;;;;;5013919;28;20183;-53
2021/03/21 00:28:34;;;;;;;17.45;12.18;;;;;;;;;;5013554;28;20180;-50
2021/03/21 00:31:00;;;;;;;16.17;12.35;;;;;;;;;;5013783;28;20196;-50
2021/03/21 00:33:28;;;;;;;15.35;12.48;;;;;;;;;;5013585;28;20218;-50
2021/03/21 00:35:54;;;;;;;16.83;12.65;;;;;;;;;;5011767;28;20181;-52
2021/03/21 00:38:28;;;;;;;17.40;14.43;;;;;;;;;;5013269;28;20568;-50
2021/03/21 00:40:54;;;;;;;19.67;13.02;;;;;;;;;;5013472;28;20213;-50
2021/03/21 00:43:20;;;;;;;18.95;13.70;;;;;;;;;;5013475;28;20536;-50
2021/03/21 00:45:46;;;;;;;21.75;14.18;;;;;;;;;;5013595;28;20230;-50
2021/03/21 00:48:17;;;;;;;16.55;13.15;;;;;;;;;;5013158;28;20172;-50
2021/03/21 00:50:44;;;;;;;16.98;12.93;;;;;;;;;;5013448;28;20272;-53
2021/03/21 00:53:10;;;;;;;17.80;12.75;;;;;;;;;;5013423;28;20202;-52
2021/03/21 00:55:36;;;;;;;18.10;13.70;;;;;;;;;;5013341;28;20165;-53
2021/03/21 00:58:02;;;;;;;16.55;11.85;;;;;;;;;;5013206;28;20392;-50
2021/03/21 01:00:48;;;;;;;15.50;11.85;;;;;;;;;;5013137;28;20671;-55
2021/03/21 01:03:14;;;;;;;16.75;12.82;;;;;;;;;;5013087;28;20332;-52
2021/03/21 01:05:41;;;;;;;20.87;13.93;;;;;;;;;;5011253;28;20850;-53
2021/03/21 01:08:20;;;;;;;19.65;14.05;;;;;;;;;;5013077;28;20826;-50
2021/03/21 01:10:47;;;;;;;21.25;15.40;;;;;;;;;;5012983;28;20282;-54
2021/03/21 01:13:13;;;;;;;19.63;14.20;;;;;;;;;;5012918;28;20292;-50
2021/03/21 01:15:40;;;;;;;19.27;14.80;;;;;;;;;;5012963;28;20257;-52
2021/03/21 01:18:06;;;;;;;19.73;14.30;;;;;;;;;;5012782;28;20411;-50
2021/03/21 01:20:32;;;;;;;19.95;14.32;;;;;;;;;;5012820;28;20233;-53
2021/03/21 01:22:58;;;;;;;15.98;13.43;;;;;;;;;;5012829;28;20264;-53
2021/03/21 01:25:25;;;;;;;20.88;14.02;;;;;;;;;;5011648;28;20176;-53
2021/03/21 01:27:53;;;;;;;20.55;14.90;;;;;;;;;;5012364;28;20256;-50
2021/03/21 01:30:19;;;;;;;18.42;13.77;;;;;;;;;;5011830;28;20200;-55
2021/03/21 01:32:45;;;;;;;19.93;14.20;;;;;;;;;;5012588;28;20206;-50
2021/03/21 01:35:12;;;;;;;20.13;14.17;;;;;;;;;;5012812;28;20409;-51
2021/03/21 01:37:38;;;;;;;23.73;15.80;;;;;;;;;;5011467;28;20931;-50
2021/03/21 01:40:06;;;;;;;17.57;12.80;;;;;;;;;;5012471;28;20365;-53
2021/03/21 01:42:40;;;;;;;19.75;13.07;;;;;;;;;;5012634;28;20473;-50
2021/03/21 01:45:26;;;;;;;22.88;14.55;;;;;;;;;;5012448;28;20168;-52
2021/03/21 01:47:52;;;;;;;22.13;14.43;;;;;;;;;;5008415;28;20211;-50
2021/03/21 01:50:27;;;;;;;15.83;12.30;;;;;;;;;;5012219;28;20168;-52
2021/03/21 01:52:54;;;;;;;21.02;12.70;;;;;;;;;;5012206;28;20458;-50
2021/03/21 01:55:21;;;;;;;16.88;12.10;;;;;;;;;;5012181;28;20168;-52
2021/03/21 01:57:47;;;;;;;22.80;13.43;;;;;;;;;;5012028;28;20215;-50
2021/03/21 02:00:13;;;;;;;19.83;12.70;;;;;;;;;;5012028;28;20172;-50
2021/03/21 02:02:40;;;;;;;19.70;14.48;;;;;;;;;;5011279;28;21017;-50
2021/03/21 02:05:07;;;;;;;23.52;16.33;;;;;;;;;;5011355;28;20208;-53
2021/03/21 02:07:33;;;;;;;30.38;18.75;;;;;;;;;;5011681;28;20187;-50
2021/03/21 02:10:05;;;;;;;24.50;14.73;;;;;;;;;;5011871;28;20636;-51
2021/03/21 02:12:43;;;;;;;27.20;16.92;;;;;;;;;;5011947;28;20845;-50
2021/03/21 02:15:12;;;;;;;34.33;21.55;;;;;;;;;;5011979;28;20175;-51
2021/03/21 02:17:50;;;;;;;38.20;21.90;;;;;;;;;;5011571;28;20172;-51
2021/03/21 02:20:19;;;;;;;37.85;22.23;;;;;;;;;;5011776;28;20175;-53
2021/03/21 02:22:54;;;;;;;40.22;23.65;;;;;;;;;;5011777;28;20172;-52
2021/03/21 02:25:20;;;;;;;43.22;24.30;;;;;;;;;;5011793;28;20225;-50
2021/03/21 02:28:06;;;;;;;42.50;25.23;;;;;;;;;;5011565;28;20175;-50
2021/03/21 02:30:36;;;;;;;42.83;25.45;;;;;;;;;;5011506;28;20411;-50
2021/03/21 02:33:05;;;;;;;45.35;26.10;;;;;;;;;;5011637;28;20553;-50
2021/03/21 02:35:46;;;;;;;43.85;25.27;;;;;;;;;;5010974;28;20172;-56
2021/03/21 02:38:26;;;;;;;49.30;27.13;;;;;;;;;;4996993;28;20192;-50
2021/03/21 02:40:56;;;;;;;47.28;27.40;;;;;;;;;;5011060;28;20586;-53
2021/03/21 02:43:28;;;;;;;45.67;26.75;;;;;;;;;;5011467;28;20164;-50
2021/03/21 02:45:57;;;;;;;48.20;28.45;;;;;;;;;;5011441;28;20176;-52
2021/03/21 02:48:29;;;;;;;52.33;27.63;;;;;;;;;;5011082;28;20176;-51
2021/03/21 02:50:58;;;;;;;47.85;26.20;;;;;;;;;;5011297;28;20192;-51
2021/03/21 02:53:27;;;;;;;51.40;27.58;;;;;;;;;;5011120;28;20200;-52
2021/03/21 02:55:55;;;;;;;49.25;26.45;;;;;;;;;;5011293;28;20172;-53
2021/03/21 02:58:23;;;;;;;50.10;25.98;;;;;;;;;;5011054;28;20191;-51
2021/03/21 03:00:52;;;;;;;45.58;25.88;;;;;;;;;;5011041;28;20241;-51
2021/03/21 03:03:19;;;;;;;52.53;27.45;;;;;;;;;;5011241;28;20169;-50
2021/03/21 03:05:48;;;;;;;47.47;25.90;;;;;;;;;;5009974;28;20306;-50
2021/03/21 03:08:14;;;;;;;49.80;27.83;;;;;;;;;;5010938;28;20207;-50
2021/03/21 03:10:51;;;;;;;52.83;26.90;;;;;;;;;;5011041;28;20266;-51
2021/03/21 03:13:24;;;;;;;49.05;26.85;;;;;;;;;;5011423;28;20459;-51
2021/03/21 03:15:50;;;;;;;42.38;23.83;;;;;;;;;;5010922;28;20299;-50
2021/03/21 03:18:35;;;;;;;45.67;26.00;;;;;;;;;;5010763;28;20203;-50
2021/03/21 03:21:07;;;;;;;51.08;25.27;;;;;;;;;;5010894;28;20238;-53
2021/03/21 03:23:38;;;;;;;59.13;28.25;;;;;;;;;;5011063;28;20234;-50
2021/03/21 03:26:10;;;;;;;55.20;24.52;;;;;;;;;;5010884;28;20179;-50
2021/03/21 03:28:40;;;;;;;53.80;26.75;;;;;;;;;;5010646;28;20172;-50
2021/03/21 03:31:26;;;;;;;52.13;27.35;;;;;;;;;;5010746;28;20334;-53
2021/03/21 03:33:53;;;;;;;49.95;26.90;;;;;;;;;;5010688;28;20659;-51
2021/03/21 03:36:19;;;;;;;58.65;28.13;;;;;;;;;;5009058;28;20176;-50
2021/03/21 03:38:48;;;;;;;54.53;26.40;;;;;;;;;;5010584;28;20195;-50
2021/03/21 03:41:34;;;;;;;50.45;26.25;;;;;;;;;;5010755;28;20447;-56
2021/03/21 03:44:18;;;;;;;56.78;27.80;;;;;;;;;;4999687;28;20184;-53
2021/03/21 03:46:50;;;;;;;61.05;29.40;;;;;;;;;;5010843;28;20175;-53
2021/03/21 03:49:40;;;;;;;52.10;26.50;;;;;;;;;;5010405;28;20177;-49
2021/03/21 03:52:24;;;;;;;60.95;28.50;;;;;;;;;;5008482;28;20207;-53
2021/03/21 03:55:02;;;;;;;52.33;26.85;;;;;;;;;;5014418;28;20183;-55
2021/03/21 03:57:34;;;;;;;57.72;28.20;;;;;;;;;;5014311;28;20218;-50
2021/03/21 04:00:06;;;;;;;68.72;30.95;;;;;;;;;;5014140;28;20168;-52
2021/03/21 04:03:08;;;;;;;70.13;30.63;;;;;;;;;;5014447;28;20172;-53
2021/03/21 04:06:07;;;;;;;65.03;30.70;;;;;;;;;;4984166;28;20208;-50
2021/03/21 04:08:42;;;;;;;69.03;33.55;;;;;;;;;;4972196;28;20185;-51
2021/03/21 04:14:11;;;;;;;59.72;30.27;;;;;;;;;;4994156;28;20192;-50
2021/03/21 04:16:41;;;;;;;60.87;31.07;;;;;;;;;;4994666;28;20169;-50
2021/03/21 04:19:08;;;;;;;60.63;30.95;;;;;;;;;;4994310;28;20398;-53
2021/03/21 04:21:54;;;;;;;60.10;30.77;;;;;;;;;;4994482;28;20189;-50
2021/03/21 04:24:34;;;;;;;62.55;29.30;;;;;;;;;;4994561;28;20169;-50
2021/03/21 04:27:02;;;;;;;64.85;29.45;;;;;;;;;;4994382;28;20164;-50
2021/03/21 04:29:33;;;;;;;57.65;28.50;;;;;;;;;;4994057;28;20165;-50
2021/03/21 04:32:02;;;;;;;54.05;28.60;;;;;;;;;;4994132;28;20187;-50
2021/03/21 04:34:28;;;;;;;53.38;27.38;;;;;;;;;;4994266;28;20169;-50
2021/03/21 04:36:56;;;;;;;52.10;26.75;;;;;;;;;;5009004;28;20176;-50
2021/03/21 04:39:25;;;;;;;38.05;22.23;;;;;;;;;;5013485;28;20168;-50
2021/03/21 04:42:03;;;;;;;40.83;22.80;;;;;;;;;;5013366;28;20200;-50
2021/03/21 04:44:32;;;;;;;38.95;21.65;;;;;;;;;;5012536;28;20184;-50
2021/03/21 04:47:04;;;;;;;38.42;22.42;;;;;;;;;;5013626;28;20195;-51
2021/03/21 04:49:30;;;;;;;35.22;21.85;;;;;;;;;;5013334;28;20164;-51
2021/03/21 04:52:06;;;;;;;37.35;21.98;;;;;;;;;;5013399;28;20189;-51
2021/03/21 04:54:35;;;;;;;38.63;23.40;;;;;;;;;;5013333;28;20231;-50
2021/03/21 04:57:20;;;;;;;36.47;22.13;;;;;;;;;;5013517;28;20239;-50
2021/03/21 04:59:46;;;;;;;35.85;20.35;;;;;;;;;;5013144;28;20223;-51
2021/03/21 05:02:12;;;;;;;37.05;21.98;;;;;;;;;;5013278;28;20192;-50
2021/03/21 05:04:44;;;;;;;34.77;21.33;;;;;;;;;;5013087;28;20176;-51
2021/03/21 05:07:20;;;;;;;35.78;21.27;;;;;;;;;;5011337;28;20426;-50
2021/03/21 05:09:48;;;;;;;32.03;19.73;;;;;;;;;;5013066;28;20167;-50
2021/03/21 05:12:27;;;;;;;33.72;20.77;;;;;;;;;;5012917;28;20200;-53
2021/03/21 05:14:57;;;;;;;31.52;18.92;;;;;;;;;;5013024;28;20175;-50
2021/03/21 05:17:36;;;;;;;31.13;18.02;;;;;;;;;;5012846;28;20164;-50
2021/03/21 05:20:07;;;;;;;31.17;19.75;;;;;;;;;;5012762;28;20250;-52
2021/03/21 05:22:43;;;;;;;30.75;17.73;;;;;;;;;;5013035;28;20177;-50
2021/03/21 05:25:16;;;;;;;28.38;18.35;;;;;;;;;;5012908;28;20218;-53
2021/03/21 05:27:43;;;;;;;27.92;17.83;;;;;;;;;;5012498;28;20168;-50
2021/03/21 05:30:15;;;;;;;26.40;17.27;;;;;;;;;;5012707;28;20534;-50
2021/03/21 05:32:42;;;;;;;29.42;17.55;;;;;;;;;;5012551;28;20564;-50
2021/03/21 05:35:08;;;;;;;25.35;16.90;;;;;;;;;;5012644;28;20161;-53
2021/03/21 05:37:45;;;;;;;26.02;17.50;;;;;;;;;;5010475;28;20180;-50
2021/03/21 05:40:14;;;;;;;26.00;17.20;;;;;;;;;;5012254;28;20168;-51
2021/03/21 05:43:11;;;;;;;23.77;16.98;;;;;;;;;;5012347;28;20179;-51
2021/03/21 05:45:43;;;;;;;27.92;18.33;;;;;;;;;;5012569;28;20187;-50
2021/03/21 05:48:20;;;;;;;29.90;18.60;;;;;;;;;;5012119;28;20586;-50
2021/03/21 05:50:46;;;;;;;28.33;18.75;;;;;;;;;;5012379;28;20675;-53
2021/03/21 05:53:24;;;;;;;28.37;19.53;;;;;;;;;;5012157;28;20206;-50
2021/03/21 05:56:02;;;;;;;28.70;18.67;;;;;;;;;;5012280;28;20495;-50
2021/03/21 05:58:31;;;;;;;29.58;18.45;;;;;;;;;;5011957;28;20168;-50
2021/03/21 06:01:20;;;;;;;32.10;20.88;;;;;;;;;;5012077;28;20195;-53
2021/03/21 06:04:10;;;;;;;29.70;20.23;;;;;;;;;;5001926;28;20558;-50
2021/03/21 06:06:43;;;;;;;31.63;20.20;;;;;;;;;;5010289;28;20703;-50
2021/03/21 06:09:09;;;;;;;30.95;19.55;;;;;;;;;;5011722;28;20208;-50
2021/03/21 06:11:35;;;;;;;31.63;20.10;;;;;;;;;;5011809;28;20240;-50
2021/03/21 06:14:01;;;;;;;32.47;21.27;;;;;;;;;;5012052;28;20458;-50
2021/03/21 06:16:45;;;;;;;30.40;20.47;;;;;;;;;;5011403;28;20410;-50
2021/03/21 06:19:30;;;;;;;25.10;18.60;;;;;;;;;;5011683;28;20398;-50
2021/03/21 06:22:14;;;;;;;29.73;18.38;;;;;;;;;;5011858;28;20558;-52
2021/03/21 06:24:46;;;;;;;28.17;19.88;;;;;;;;;;5012090;28;20175;-50
2021/03/21 06:27:18;;;;;;;25.67;17.50;;;;;;;;;;5011614;28;20507;-52
2021/03/21 06:29:58;;;;;;;26.13;17.63;;;;;;;;;;5011665;28;20169;-52
2021/03/21 06:32:42;;;;;;;20.60;15.38;;;;;;;;;;5011514;28;20227;-51
2021/03/21 06:35:29;;;;;;;20.02;14.70;;;;;;;;;;5010695;28;20164;-52
2021/03/21 06:38:05;;;;;;;22.90;15.05;;;;;;;;;;4981306;28;20198;-52
2021/03/21 06:40:42;;;;;;;20.23;14.52;;;;;;;;;;4991709;28;20193;-50
2021/03/21 06:43:27;;;;;;;17.73;13.25;;;;;;;;;;4991853;28;20169;-54
2021/03/21 06:46:03;;;;;;;20.50;14.45;;;;;;;;;;5010251;28;20199;-50
2021/03/21 06:48:35;;;;;;;18.48;12.32;;;;;;;;;;5011099;28;20170;-51
2021/03/21 06:51:01;;;;;;;16.17;12.85;;;;;;;;;;5011274;28;20303;-53
2021/03/21 06:53:40;;;;;;;16.43;11.90;;;;;;;;;;5011365;28;20763;-50
2021/03/21 06:56:26;;;;;;;16.75;10.65;;;;;;;;;;5011327;28;20550;-50
2021/03/21 06:59:14;;;;;;;17.75;12.77;;;;;;;;;;5010503;28;20176;-50
2021/03/21 07:01:58;;;;;;;18.05;11.95;;;;;;;;;;5011181;28;20810;-50
2021/03/21 07:04:36;;;;;;;17.27;12.55;;;;;;;;;;5011172;28;20241;-50
2021/03/21 07:07:06;;;;;;;16.63;12.05;;;;;;;;;;5009159;28;20175;-50
2021/03/21 07:09:48;;;;;;;17.88;11.18;;;;;;;;;;5010723;28;20174;-53
2021/03/21 07:12:17;;;;;;;16.55;10.65;;;;;;;;;;5010898;28;20205;-52
2021/03/21 07:15:02;;;;;;;16.20;11.37;;;;;;;;;;5010983;28;20168;-50
2021/03/21 07:17:54;;;;;;;17.88;11.35;;;;;;;;;;5010913;28;20387;-50
2021/03/21 07:20:47;;;;;;;17.10;11.15;;;;;;;;;;5010602;28;20192;-50
2021/03/21 07:23:42;;;;;;;14.35;11.25;;;;;;;;;;5011114;28;20196;-50
2021/03/21 07:26:19;;;;;;;15.88;10.75;;;;;;;;;;5010796;28;20172;-53
2021/03/21 07:29:04;;;;;;;14.32;10.60;;;;;;;;;;5014394;28;20175;-53
2021/03/21 07:31:30;;;;;;;15.65;11.88;;;;;;;;;;5010061;28;20207;-51
2021/03/21 07:34:16;;;;;;;15.77;10.23;;;;;;;;;;5014682;28;20208;-52
2021/03/21 07:36:45;;;;;;;16.15;10.90;;;;;;;;;;5017331;28;21005;-53
2021/03/21 07:39:29;;;;;;;13.43;10.10;;;;;;;;;;5014661;28;20172;-53
2021/03/21 07:42:01;;;;;;;11.27;9.68;;;;;;;;;;5014460;28;20235;-53
2021/03/21 07:44:38;;;;;;;13.40;10.45;;;;;;;;;;5014747;28;20602;-53
2021/03/21 07:47:31;;;;;;;14.95;9.30;;;;;;;;;;5012737;28;20175;-50
2021/03/21 07:50:15;;;;;;;14.88;10.48;;;;;;;;;;5014636;28;20172;-51
2021/03/21 07:52:40;;;;;;;17.67;10.55;;;;;;;;;;5014571;28;20249;-50
2021/03/21 07:55:16;;;;;;;15.40;10.60;;;;;;;;;;5014368;28;20240;-51
2021/03/21 07:58:01;;;;;;;12.30;9.27;;;;;;;;;;5014319;28;20956;-51
2021/03/21 08:00:27;;;;;;;13.40;9.90;;;;;;;;;;5012984;28;20202;-50
2021/03/21 08:02:56;;;;;;;10.67;8.00;;;;;;;;;;5014428;28;20289;-51
2021/03/21 08:05:26;;;;;;;7.83;6.87;;;;;;;;;;5014107;28;20400;-53
2021/03/21 08:07:52;;;;;;;6.27;5.50;;;;;;;;;;5012971;28;20433;-51
2021/03/21 08:10:30;;;;;;;8.40;5.80;;;;;;;;;;5013840;28;20449;-51
2021/03/21 08:13:12;;;;;;;8.70;5.83;;;;;;;;;;5014337;28;20459;-52
2021/03/21 08:15:38;;;;;;;5.88;4.55;;;;;;;;;;5014122;28;20908;-52
2021/03/21 08:18:14;;;;;;;7.37;4.50;;;;;;;;;;5013876;28;20700;-52
2021/03/21 08:20:46;;;;;;;6.83;4.70;;;;;;;;;;5014066;28;20423;-51
2021/03/21 08:23:30;;;;;;;8.13;4.33;;;;;;;;;;5013945;28;20408;-51
2021/03/21 08:25:58;;;;;;;5.00;4.00;;;;;;;;;;5014092;28;20408;-53
2021/03/21 08:28:35;;;;;;;5.50;4.23;;;;;;;;;;5013692;28;20400;-51
2021/03/21 08:31:01;;;;;;;5.60;3.90;;;;;;;;;;5013776;28;20923;-51
2021/03/21 08:33:30;;;;;;;5.87;3.60;;;;;;;;;;5013780;28;20826;-52
2021/03/21 08:36:14;;;;;;;8.13;4.10;;;;;;;;;;5013905;28;20397;-51
2021/03/21 08:38:41;;;;;;;6.23;3.53;;;;;;;;;;5011659;28;20423;-50
2021/03/21 08:41:08;;;;;;;7.63;4.70;;;;;;;;;;5013567;28;20975;-51
2021/03/21 08:43:37;;;;;;;9.93;4.53;;;;;;;;;;5013438;28;20407;-51
2021/03/21 08:46:03;;;;;;;5.45;3.20;;;;;;;;;;5013526;28;20408;-52
2021/03/21 08:48:32;;;;;;;12.63;3.70;;;;;;;;;;5013319;28;20184;-52
2021/03/21 08:51:04;;;;;;;5.28;2.22;;;;;;;;;;5013495;28;20423;-50
2021/03/21 08:53:42;;;;;;;2.70;2.10;;;;;;;;;;5013289;28;20193;-51
2021/03/21 08:56:14;;;;;;;9.52;2.45;;;;;;;;;;5013278;28;20187;-51
2021/03/21 08:58:41;;;;;;;14.27;2.90;;;;;;;;;;5013059;28;20206;-51
2021/03/21 09:01:14;;;;;;;8.48;2.25;;;;;;;;;;5013269;28;20428;-51
2021/03/21 09:03:41;;;;;;;5.88;2.05;;;;;;;;;;5013326;28;20247;-51
2021/03/21 09:06:07;;;;;;;3.70;2.33;;;;;;;;;;5013034;28;20617;-51
2021/03/21 09:08:34;;;;;;;4.13;2.65;;;;;;;;;;5010940;28;20443;-51
2021/03/21 09:11:02;;;;;;;7.60;2.23;;;;;;;;;;5013270;28;20200;-51
2021/03/21 09:13:29;;;;;;;8.90;2.70;;;;;;;;;;5012985;28;20484;-51
2021/03/21 09:15:55;;;;;;;5.67;2.33;;;;;;;;;;5013111;28;20409;-51
2021/03/21 09:18:24;;;;;;;7.13;2.33;;;;;;;;;;5012775;28;20900;-51
2021/03/21 09:20:50;;;;;;;10.63;2.80;;;;;;;;;;5012799;28;20417;-51
2021/03/21 09:23:31;;;;;;;12.43;2.80;;;;;;;;;;5012727;28;20768;-51
2021/03/21 09:25:58;;;;;;;7.07;3.03;;;;;;;;;;5012774;28;20486;-51
2021/03/21 09:28:25;;;;;;;13.43;2.63;;;;;;;;;;5012473;28;20774;-51
2021/03/21 09:30:53;;;;;;;20.80;3.13;;;;;;;;;;5012568;28;20493;-51
2021/03/21 09:33:23;;;;;;;4.53;2.93;;;;;;;;;;5012630;28;20460;-51
2021/03/21 09:36:08;;;;;;;15.60;3.30;;;;;;;;;;5012480;28;20397;-51
2021/03/21 09:38:36;;;;;;;9.30;2.50;;;;;;;;;;5010309;28;20508;-51
2021/03/21 09:41:06;;;;;;;8.00;2.63;;;;;;;;;;5012298;28;20440;-51
2021/03/21 09:43:37;;;;;;;12.27;4.00;;;;;;;;;;5011320;28;20413;-51
2021/03/21 09:46:21;;;;;;;9.10;2.33;;;;;;;;;;5012387;28;20405;-51
2021/03/21 09:49:06;;;;;;;13.50;2.90;;;;;;;;;;5012168;28;20405;-51
2021/03/21 09:51:42;;;;;;;13.17;3.60;;;;;;;;;;5011639;28;20464;-53
2021/03/21 09:54:27;;;;;;;6.77;2.97;;;;;;;;;;5012276;28;21027;-51
2021/03/21 09:56:56;;;;;;;9.70;2.93;;;;;;;;;;5012212;28;20405;-52
2021/03/21 09:59:38;;;;;;;8.10;2.90;;;;;;;;;;5012011;28;20410;-51
2021/03/21 10:02:23;;;;;;;10.97;2.83;;;;;;;;;;5012045;28;20425;-51
2021/03/21 10:04:58;;;;;;;12.83;2.93;;;;;;;;;;5012021;28;21103;-51
2021/03/21 10:07:42;;;;;;;7.57;2.73;;;;;;;;;;5009897;28;20490;-51
2021/03/21 10:10:14;;;;;;;9.50;3.10;;;;;;;;;;5011971;28;21069;-50
2021/03/21 10:12:41;;;;;;;11.00;2.67;;;;;;;;;;5012008;28;20456;-51
2021/03/21 10:15:17;;;;;;;15.52;3.80;;;;;;;;;;5012180;28;20162;-53
2021/03/21 10:17:44;;;;;;;8.60;2.80;;;;;;;;;;5011782;28;20157;-52
2021/03/21 10:20:13;;;;;;;18.65;4.68;;;;;;;;;;5011843;28;20395;-51
2021/03/21 10:22:39;;;;;;;12.23;3.60;;;;;;;;;;5012024;28;20189;-51
2021/03/21 10:25:12;;;;;;;21.83;3.70;;;;;;;;;;5011711;28;20409;-50
2021/03/21 10:27:42;;;;;;;13.13;3.50;;;;;;;;;;5011566;28;20954;-51
2021/03/21 10:30:18;;;;;;;10.23;3.40;;;;;;;;;;5011319;28;20404;-51
2021/03/21 10:32:49;;;;;;;13.03;3.90;;;;;;;;;;5011534;28;20563;-52
2021/03/21 10:35:35;;;;;;;16.10;3.87;;;;;;;;;;5011485;28;20407;-51
2021/03/21 10:38:03;;;;;;;17.77;3.50;;;;;;;;;;5010211;28;20425;-50
2021/03/21 10:40:29;;;;;;;14.60;3.73;;;;;;;;;;5011246;28;20451;-51
2021/03/21 10:43:02;;;;;;;10.53;3.30;;;;;;;;;;5011521;28;20406;-51
2021/03/21 10:45:31;;;;;;;16.73;5.00;;;;;;;;;;5011932;28;21063;-52
2021/03/21 10:47:58;;;;;;;9.33;3.07;;;;;;;;;;5011231;28;20421;-52
2021/03/21 10:50:27;;;;;;;9.97;3.47;;;;;;;;;;5011075;28;20426;-53
2021/03/21 10:53:12;;;;;;;15.00;4.63;;;;;;;;;;5011229;28;20458;-53
2021/03/21 10:55:41;;;;;;;11.40;3.30;;;;;;;;;;5011179;28;20919;-53
2021/03/21 10:58:29;;;;;;;23.37;4.63;;;;;;;;;;5011077;28;20398;-53
2021/03/21 11:01:14;;;;;;;23.57;6.27;;;;;;;;;;5010889;28;20416;-52
2021/03/21 11:03:40;;;;;;;18.07;4.47;;;;;;;;;;5011109;28;20451;-53
2021/03/21 11:06:13;;;;;;;14.75;3.85;;;;;;;;;;5011285;28;20546;-52
2021/03/21 11:08:38;;;;;;;20.40;4.40;;;;;;;;;;5007248;28;20271;-52
2021/03/21 11:11:17;;;;;;;17.20;3.53;;;;;;;;;;5011028;28;20938;-53
2021/03/21 11:13:43;;;;;;;24.13;4.70;;;;;;;;;;5010824;28;20456;-52
2021/03/21 11:16:13;;;;;;;21.53;4.50;;;;;;;;;;5010945;28;20409;-53
2021/03/21 11:18:40;;;;;;;20.13;4.67;;;;;;;;;;5010597;28;20406;-53
2021/03/21 11:21:20;;;;;;;25.10;4.63;;;;;;;;;;5010763;28;20430;-53
2021/03/21 11:23:49;;;;;;;15.53;3.63;;;;;;;;;;5010822;28;20918;-53
2021/03/21 11:26:28;;;;;;;18.07;4.80;;;;;;;;;;5010806;28;20411;-53
2021/03/21 11:29:14;;;;;;;18.73;4.23;;;;;;;;;;5010651;28;20414;-53
2021/03/21 11:31:43;;;;;;;20.07;4.37;;;;;;;;;;5000357;28;20956;-53
2021/03/21 11:34:16;;;;;;;16.70;4.27;;;;;;;;;;5010783;28;20540;-53
2021/03/21 11:36:42;;;;;;;19.53;4.80;;;;;;;;;;5010898;28;20407;-53
2021/03/21 11:39:12;;;;;;;22.80;4.97;;;;;;;;;;5008518;28;20910;-52
2021/03/21 11:41:40;;;;;;;17.57;4.27;;;;;;;;;;5010629;28;20443;-53
2021/03/21 11:44:16;;;;;;;20.93;4.83;;;;;;;;;;5010197;28;20897;-54
2021/03/21 11:46:42;;;;;;;28.73;4.90;;;;;;;;;;5010261;28;20903;-50
2021/03/21 11:49:09;;;;;;;15.37;4.20;;;;;;;;;;5009889;28;20407;-50
2021/03/21 11:51:35;;;;;;;17.47;5.07;;;;;;;;;;5003740;28;20493;-50
2021/03/21 11:54:01;;;;;;;21.63;3.90;;;;;;;;;;5010388;28;20454;-54
2021/03/21 11:56:33;;;;;;;20.00;4.70;;;;;;;;;;5010342;28;20915;-53
2021/03/21 11:59:00;;;;;;;16.53;3.90;;;;;;;;;;5010485;28;20445;-50
2021/03/21 12:01:35;;;;;;;14.30;4.30;;;;;;;;;;5010382;28;20433;-53
2021/03/21 12:04:02;;;;;;;18.87;4.37;;;;;;;;;;5010619;28;20407;-50
2021/03/21 12:06:33;;;;;;;18.20;4.17;;;;;;;;;;5014313;28;20922;-53
2021/03/21 12:09:10;;;;;;;20.30;4.43;;;;;;;;;;5015651;28;20522;-53
2021/03/21 12:11:37;;;;;;;28.00;4.63;;;;;;;;;;5018032;28;20423;-52
2021/03/21 12:14:18;;;;;;;20.10;4.77;;;;;;;;;;5018521;28;20468;-52
2021/03/21 12:16:45;;;;;;;18.63;5.23;;;;;;;;;;5021679;28;20411;-52
2021/03/21 12:19:28;;;;;;;17.20;3.80;;;;;;;;;;5020522;28;20406;-53
2021/03/21 12:21:55;;;;;;;13.33;3.57;;;;;;;;;;5020935;28;20423;-54
2021/03/21 12:24:23;;;;;;;19.87;5.07;;;;;;;;;;5022081;28;20399;-52
2021/03/21 12:26:51;;;;;;;23.77;4.67;;;;;;;;;;5022064;28;20403;-52
2021/03/21 12:29:33;;;;;;;19.13;4.23;;;;;;;;;;5021856;28;20403;-53
2021/03/21 12:32:17;;;;;;;17.40;4.40;;;;;;;;;;5019864;28;20450;-52
2021/03/21 12:34:45;;;;;;;20.73;4.90;;;;;;;;;;5020532;28;20514;-51
2021/03/21 12:37:16;;;;;;;18.63;4.30;;;;;;;;;;5022520;28;20422;-52
2021/03/21 12:39:44;;;;;;;18.53;4.90;;;;;;;;;;5021733;28;20416;-53
2021/03/21 12:42:29;;;;;;;16.70;4.33;;;;;;;;;;5017679;28;20476;-53
2021/03/21 12:45:14;;;;;;;16.47;4.60;;;;;;;;;;5013527;28;20415;-53
2021/03/21 12:47:42;;;;;;;22.10;5.47;;;;;;;;;;4994078;28;20868;-50
2021/03/21 12:50:26;;;;;;;22.57;4.40;;;;;;;;;;4993841;28;20459;-50
2021/03/21 12:52:52;;;;;;;31.03;5.80;;;;;;;;;;4993730;28;20466;-53
2021/03/21 12:55:19;;;;;;;26.70;4.97;;;;;;;;;;4993847;28;20400;-50
2021/03/21 12:57:46;;;;;;;27.67;5.40;;;;;;;;;;4993433;28;20892;-53
2021/03/21 13:00:20;;;;;;;26.23;5.30;;;;;;;;;;4993639;28;20404;-50
2021/03/21 13:02:46;;;;;;;22.70;4.83;;;;;;;;;;4993527;28;20961;-50
2021/03/21 13:05:38;;;;;;;15.67;4.33;;;;;;;;;;4993802;28;20404;-50
2021/03/21 13:08:05;;;;;;;15.40;4.07;;;;;;;;;;4992440;28;20486;-50
2021/03/21 13:10:34;;;;;;;14.83;4.40;;;;;;;;;;4994280;28;20424;-53
2021/03/21 13:13:01;;;;;;;24.43;4.47;;;;;;;;;;4992560;28;20456;-53
2021/03/21 13:15:27;;;;;;;16.30;4.00;;;;;;;;;;4993349;28;20400;-52
2021/03/21 13:17:53;;;;;;;26.17;5.00;;;;;;;;;;4993383;28;20483;-52
2021/03/21 13:20:20;;;;;;;25.10;6.73;;;;;;;;;;4993247;28;20439;-53
2021/03/21 13:22:46;;;;;;;20.60;5.03;;;;;;;;;;4993244;28;20427;-53
2021/03/21 13:25:14;;;;;;;12.17;4.03;;;;;;;;;;4993169;28;20887;-53
2021/03/21 13:27:40;;;;;;;20.87;4.03;;;;;;;;;;4993233;28;20420;-53
2021/03/21 13:30:07;;;;;;;28.13;4.93;;;;;;;;;;4993030;28;20789;-52
2021/03/21 13:32:33;;;;;;;17.23;4.50;;;;;;;;;;4994840;28;20542;-50
2021/03/21 13:34:59;;;;;;;18.93;5.53;;;;;;;;;;4991850;28;21045;-50
2021/03/21 13:37:25;;;;;;;16.77;4.33;;;;;;;;;;5008861;28;20455;-51
2021/03/21 13:39:52;;;;;;;19.63;5.10;;;;;;;;;;5012427;28;20482;-50
2021/03/21 13:42:19;;;;;;;21.17;5.03;;;;;;;;;;5012393;28;20442;-50
2021/03/21 13:44:45;;;;;;;15.53;4.30;;;;;;;;;;5014096;28;20390;-50
2021/03/21 13:47:12;;;;;;;20.07;5.33;;;;;;;;;;5012428;28;20404;-50
2021/03/21 13:49:38;;;;;;;23.83;4.07;;;;;;;;;;5012058;28;20401;-50
2021/03/21 13:52:05;;;;;;;21.83;4.73;;;;;;;;;;5011105;28;20503;-50
2021/03/21 13:54:31;;;;;;;24.30;4.10;;;;;;;;;;5011107;28;20966;-53
2021/03/21 13:56:57;;;;;;;18.10;4.43;;;;;;;;;;5012128;28;20402;-50
2021/03/21 13:59:23;;;;;;;19.80;4.73;;;;;;;;;;5011978;28;20403;-50
2021/03/21 14:01:49;;;;;;;22.40;4.70;;;;;;;;;;5012639;28;20834;-51
2021/03/21 14:04:15;;;;;;;19.70;5.07;;;;;;;;;;5012017;28;20408;-51
2021/03/21 14:06:41;;;;;;;28.07;5.90;;;;;;;;;;5010960;28;20432;-50
2021/03/21 14:09:07;;;;;;;15.70;5.10;;;;;;;;;;5011772;28;20769;-52
2021/03/21 14:11:33;;;;;;;13.93;4.83;;;;;;;;;;5012314;28;20425;-52
2021/03/21 14:13:59;;;;;;;23.37;5.20;;;;;;;;;;5016806;28;20479;-52
2021/03/21 14:16:25;;;;;;;17.53;4.67;;;;;;;;;;5018641;28;20461;-53
2021/03/21 14:18:51;;;;;;;24.77;5.00;;;;;;;;;;5019189;28;20849;-52
2021/03/21 14:21:17;;;;;;;18.10;5.07;;;;;;;;;;5018951;28;20431;-52
2021/03/21 14:23:43;;;;;;;26.70;4.83;;;;;;;;;;5019729;28;20823;-52
2021/03/21 14:26:10;;;;;;;18.97;4.70;;;;;;;;;;5019332;28;20824;-52
2021/03/21 14:28:36;;;;;;;14.37;4.23;;;;;;;;;;5020186;28;20470;-52
2021/03/21 14:31:03;;;;;;;23.33;3.97;;;;;;;;;;5019496;28;20469;-53
2021/03/21 14:33:29;;;;;;;32.77;5.40;;;;;;;;;;5018238;28;20459;-52
2021/03/21 14:35:55;;;;;;;18.73;5.73;;;;;;;;;;5018113;28;20443;-52
2021/03/21 14:38:25;;;;;;;18.67;4.37;;;;;;;;;;5019403;28;20404;-52
2021/03/21 14:40:51;;;;;;;20.40;5.13;;;;;;;;;;5020598;28;20481;-53
2021/03/21 14:43:18;;;;;;;18.00;4.40;;;;;;;;;;5019874;28;20407;-53
2021/03/21 14:45:44;;;;;;;20.43;4.63;;;;;;;;;;5021327;28;20498;-52
2021/03/21 14:48:11;;;;;;;22.93;5.00;;;;;;;;;;5020068;28;20410;-53
2021/03/21 14:50:37;;;;;;;15.50;4.90;;;;;;;;;;5020267;28;20525;-54
2021/03/21 14:53:03;;;;;;;21.07;4.83;;;;;;;;;;5019811;28;20465;-53
2021/03/21 14:55:31;;;;;;;21.43;4.30;;;;;;;;;;5020118;28;20403;-54
2021/03/21 14:57:57;;;;;;;14.67;3.83;;;;;;;;;;5019264;28;20407;-54